sensor_id;sensor_type;location;lat;lon;timestamp;P1;durP1;ratioP1;P2;durP2;ratioP2
3941;SDS011;1985;48.592;8.850;2022-08-25T00:01:08;9.10;;;1.88;;
3941;SDS011;1985;48.592;8.850;2022-08-25T00:03:38;8.40;;;1.50;;
3941;SDS011;1985;48.592;8.850;2022-08-25T00:06:08;8.60;;;1.75;;
3941;SDS011;1985;48.592;8.850;2022-08-25T00:08:34;9.50;;;1.70;;
3941;SDS011;1985;48.592;8.850;2022-08-25T00:11:02;8.60;;;1.50;;
3941;SDS011;1985;48.592;8.850;2022-08-25T00:13:29;9.23;;;1.70;;
3941;SDS011;1985;48.592;8.850;2022-08-25T00:15:55;9.68;;;1.60;;
3941;SDS011;1985;48.592;8.850;2022-08-25T00:18:21;9.43;;;1.70;;
3941;SDS011;1985;48.592;8.850;2022-08-25T00:20:47;9.27;;;1.75;;
3941;SDS011;1985;48.592;8.850;2022-08-25T00:23:13;8.47;;;1.40;;
3941;SDS011;1985;48.592;8.850;2022-08-25T00:25:38;8.73;;;1.57;;
3941;SDS011;1985;48.592;8.850;2022-08-25T00:28:04;8.90;;;1.70;;
3941;SDS011;1985;48.592;8.850;2022-08-25T00:30:30;9.50;;;1.77;;
3941;SDS011;1985;48.592;8.850;2022-08-25T00:32:55;9.73;;;1.75;;
3941;SDS011;1985;48.592;8.850;2022-08-25T00:35:21;8.73;;;1.77;;
3941;SDS011;1985;48.592;8.850;2022-08-25T00:37:47;8.65;;;1.70;;
3941;SDS011;1985;48.592;8.850;2022-08-25T00:40:13;11.05;;;1.90;;
3941;SDS011;1985;48.592;8.850;2022-08-25T00:42:39;9.10;;;1.73;;
3941;SDS011;1985;48.592;8.850;2022-08-25T00:45:05;8.50;;;1.60;;
3941;SDS011;1985;48.592;8.850;2022-08-25T00:47:32;8.70;;;1.60;;
3941;SDS011;1985;48.592;8.850;2022-08-25T00:50:00;9.23;;;1.60;;
3941;SDS011;1985;48.592;8.850;2022-08-25T00:52:37;8.90;;;1.67;;
3941;SDS011;1985;48.592;8.850;2022-08-25T00:55:17;9.30;;;1.70;;
3941;SDS011;1985;48.592;8.850;2022-08-25T00:57:58;9.23;;;1.80;;
3941;SDS011;1985;48.592;8.850;2022-08-25T01:00:35;8.97;;;1.80;;
3941;SDS011;1985;48.592;8.850;2022-08-25T01:03:03;8.50;;;1.40;;
3941;SDS011;1985;48.592;8.850;2022-08-25T01:05:30;10.50;;;1.80;;
3941;SDS011;1985;48.592;8.850;2022-08-25T01:07:56;10.95;;;1.75;;
3941;SDS011;1985;48.592;8.850;2022-08-25T01:10:23;9.10;;;1.90;;
3941;SDS011;1985;48.592;8.850;2022-08-25T01:12:51;9.10;;;1.80;;
3941;SDS011;1985;48.592;8.850;2022-08-25T01:15:20;9.70;;;2.08;;
3941;SDS011;1985;48.592;8.850;2022-08-25T01:20:14;10.10;;;2.20;;
3941;SDS011;1985;48.592;8.850;2022-08-25T01:22:40;8.43;;;1.50;;
3941;SDS011;1985;48.592;8.850;2022-08-25T01:25:19;9.77;;;2.00;;
3941;SDS011;1985;48.592;8.850;2022-08-25T01:27:53;9.00;;;1.48;;
3941;SDS011;1985;48.592;8.850;2022-08-25T01:30:19;9.73;;;1.80;;
3941;SDS011;1985;48.592;8.850;2022-08-25T01:32:45;9.27;;;1.90;;
3941;SDS011;1985;48.592;8.850;2022-08-25T01:35:11;9.27;;;1.90;;
3941;SDS011;1985;48.592;8.850;2022-08-25T01:37:37;9.45;;;1.75;;
3941;SDS011;1985;48.592;8.850;2022-08-25T01:40:03;8.50;;;1.70;;
3941;SDS011;1985;48.592;8.850;2022-08-25T01:42:37;9.60;;;2.10;;
3941;SDS011;1985;48.592;8.850;2022-08-25T01:45:06;9.05;;;1.70;;
3941;SDS011;1985;48.592;8.850;2022-08-25T01:47:32;10.30;;;1.73;;
3941;SDS011;1985;48.592;8.850;2022-08-25T01:49:58;9.25;;;1.90;;
3941;SDS011;1985;48.592;8.850;2022-08-25T01:52:27;9.20;;;1.85;;
3941;SDS011;1985;48.592;8.850;2022-08-25T01:54:58;9.45;;;1.80;;
3941;SDS011;1985;48.592;8.850;2022-08-25T01:57:23;9.70;;;2.10;;
3941;SDS011;1985;48.592;8.850;2022-08-25T01:59:49;8.90;;;1.80;;
3941;SDS011;1985;48.592;8.850;2022-08-25T02:02:15;9.13;;;2.00;;
3941;SDS011;1985;48.592;8.850;2022-08-25T02:04:40;9.93;;;1.90;;
3941;SDS011;1985;48.592;8.850;2022-08-25T02:07:06;8.70;;;1.60;;
3941;SDS011;1985;48.592;8.850;2022-08-25T02:09:33;9.30;;;1.90;;
3941;SDS011;1985;48.592;8.850;2022-08-25T02:12:00;9.10;;;2.10;;
3941;SDS011;1985;48.592;8.850;2022-08-25T02:14:25;9.80;;;2.30;;
3941;SDS011;1985;48.592;8.850;2022-08-25T02:16:52;9.45;;;1.88;;
3941;SDS011;1985;48.592;8.850;2022-08-25T02:19:18;9.17;;;1.80;;
3941;SDS011;1985;48.592;8.850;2022-08-25T02:21:45;9.40;;;1.77;;
3941;SDS011;1985;48.592;8.850;2022-08-25T02:24:11;9.57;;;1.90;;
3941;SDS011;1985;48.592;8.850;2022-08-25T02:26:37;9.50;;;2.15;;
3941;SDS011;1985;48.592;8.850;2022-08-25T02:29:04;9.00;;;1.70;;
3941;SDS011;1985;48.592;8.850;2022-08-25T02:31:31;8.85;;;1.63;;
3941;SDS011;1985;48.592;8.850;2022-08-25T02:33:58;11.50;;;2.15;;
3941;SDS011;1985;48.592;8.850;2022-08-25T02:36:23;10.10;;;2.30;;
3941;SDS011;1985;48.592;8.850;2022-08-25T02:38:51;9.05;;;1.90;;
3941;SDS011;1985;48.592;8.850;2022-08-25T02:41:19;9.02;;;1.85;;
3941;SDS011;1985;48.592;8.850;2022-08-25T02:43:48;9.52;;;2.00;;
3941;SDS011;1985;48.592;8.850;2022-08-25T02:46:14;9.23;;;1.90;;
3941;SDS011;1985;48.592;8.850;2022-08-25T02:48:43;10.48;;;2.47;;
3941;SDS011;1985;48.592;8.850;2022-08-25T02:51:10;9.70;;;2.05;;
3941;SDS011;1985;48.592;8.850;2022-08-25T02:53:36;9.30;;;2.00;;
3941;SDS011;1985;48.592;8.850;2022-08-25T02:56:06;9.30;;;1.90;;
3941;SDS011;1985;48.592;8.850;2022-08-25T02:58:34;9.10;;;2.00;;
3941;SDS011;1985;48.592;8.850;2022-08-25T03:01:00;9.10;;;1.92;;
3941;SDS011;1985;48.592;8.850;2022-08-25T03:03:26;9.50;;;2.10;;
3941;SDS011;1985;48.592;8.850;2022-08-25T03:05:51;9.25;;;1.90;;
3941;SDS011;1985;48.592;8.850;2022-08-25T03:08:18;9.47;;;2.00;;
3941;SDS011;1985;48.592;8.850;2022-08-25T03:10:44;11.10;;;2.10;;
3941;SDS011;1985;48.592;8.850;2022-08-25T03:13:09;9.20;;;2.00;;
3941;SDS011;1985;48.592;8.850;2022-08-25T03:15:35;9.23;;;2.00;;
3941;SDS011;1985;48.592;8.850;2022-08-25T03:18:02;9.93;;;2.30;;
3941;SDS011;1985;48.592;8.850;2022-08-25T03:20:29;9.40;;;2.20;;
3941;SDS011;1985;48.592;8.850;2022-08-25T03:22:55;10.10;;;2.30;;
3941;SDS011;1985;48.592;8.850;2022-08-25T03:25:21;9.68;;;2.40;;
3941;SDS011;1985;48.592;8.850;2022-08-25T03:28:05;8.85;;;1.90;;
3941;SDS011;1985;48.592;8.850;2022-08-25T03:30:31;10.03;;;2.40;;
3941;SDS011;1985;48.592;8.850;2022-08-25T03:32:57;10.27;;;2.40;;
3941;SDS011;1985;48.592;8.850;2022-08-25T03:35:23;9.38;;;2.10;;
3941;SDS011;1985;48.592;8.850;2022-08-25T03:37:49;9.80;;;2.20;;
3941;SDS011;1985;48.592;8.850;2022-08-25T03:40:15;9.93;;;2.38;;
3941;SDS011;1985;48.592;8.850;2022-08-25T03:42:42;9.45;;;2.13;;
3941;SDS011;1985;48.592;8.850;2022-08-25T03:45:09;9.68;;;2.20;;
3941;SDS011;1985;48.592;8.850;2022-08-25T03:47:36;9.60;;;2.30;;
3941;SDS011;1985;48.592;8.850;2022-08-25T03:50:03;9.30;;;2.00;;
3941;SDS011;1985;48.592;8.850;2022-08-25T03:52:30;10.68;;;2.20;;
3941;SDS011;1985;48.592;8.850;2022-08-25T03:54:56;10.00;;;2.60;;
3941;SDS011;1985;48.592;8.850;2022-08-25T03:57:21;10.10;;;2.25;;
3941;SDS011;1985;48.592;8.850;2022-08-25T03:59:47;10.50;;;2.20;;
3941;SDS011;1985;48.592;8.850;2022-08-25T04:02:13;9.97;;;2.57;;
3941;SDS011;1985;48.592;8.850;2022-08-25T04:04:38;9.90;;;2.50;;
3941;SDS011;1985;48.592;8.850;2022-08-25T04:07:04;10.95;;;3.20;;
3941;SDS011;1985;48.592;8.850;2022-08-25T04:09:30;12.00;;;2.70;;
3941;SDS011;1985;48.592;8.850;2022-08-25T04:11:56;9.07;;;1.77;;
3941;SDS011;1985;48.592;8.850;2022-08-25T04:14:21;9.90;;;2.30;;
3941;SDS011;1985;48.592;8.850;2022-08-25T04:16:48;11.00;;;2.60;;
3941;SDS011;1985;48.592;8.850;2022-08-25T04:19:13;10.13;;;2.55;;
3941;SDS011;1985;48.592;8.850;2022-08-25T04:21:39;10.33;;;2.33;;
3941;SDS011;1985;48.592;8.850;2022-08-25T04:24:06;10.20;;;2.50;;
3941;SDS011;1985;48.592;8.850;2022-08-25T04:26:34;12.13;;;2.38;;
3941;SDS011;1985;48.592;8.850;2022-08-25T04:29:03;9.77;;;2.78;;
3941;SDS011;1985;48.592;8.850;2022-08-25T04:31:31;10.60;;;2.83;;
3941;SDS011;1985;48.592;8.850;2022-08-25T04:33:59;10.50;;;2.70;;
3941;SDS011;1985;48.592;8.850;2022-08-25T04:36:27;10.68;;;2.60;;
3941;SDS011;1985;48.592;8.850;2022-08-25T04:38:53;10.70;;;2.60;;
3941;SDS011;1985;48.592;8.850;2022-08-25T04:41:20;9.98;;;2.50;;
3941;SDS011;1985;48.592;8.850;2022-08-25T04:43:48;10.10;;;2.43;;
3941;SDS011;1985;48.592;8.850;2022-08-25T04:46:16;11.05;;;2.83;;
3941;SDS011;1985;48.592;8.850;2022-08-25T04:48:47;10.80;;;2.90;;
3941;SDS011;1985;48.592;8.850;2022-08-25T04:51:15;10.10;;;2.70;;
3941;SDS011;1985;48.592;8.850;2022-08-25T04:53:42;10.23;;;2.70;;
3941;SDS011;1985;48.592;8.850;2022-08-25T04:56:09;9.93;;;2.60;;
3941;SDS011;1985;48.592;8.850;2022-08-25T04:58:39;11.80;;;2.67;;
3941;SDS011;1985;48.592;8.850;2022-08-25T05:01:06;11.93;;;3.30;;
3941;SDS011;1985;48.592;8.850;2022-08-25T05:03:35;9.80;;;2.40;;
3941;SDS011;1985;48.592;8.850;2022-08-25T05:06:02;10.00;;;2.30;;
3941;SDS011;1985;48.592;8.850;2022-08-25T05:08:28;10.02;;;2.47;;
3941;SDS011;1985;48.592;8.850;2022-08-25T05:10:54;10.20;;;2.90;;
3941;SDS011;1985;48.592;8.850;2022-08-25T05:13:21;11.27;;;2.80;;
3941;SDS011;1985;48.592;8.850;2022-08-25T05:15:53;10.40;;;3.00;;
3941;SDS011;1985;48.592;8.850;2022-08-25T05:18:21;11.50;;;2.70;;
3941;SDS011;1985;48.592;8.850;2022-08-25T05:20:49;10.10;;;2.70;;
3941;SDS011;1985;48.592;8.850;2022-08-25T05:23:16;13.55;;;2.50;;
3941;SDS011;1985;48.592;8.850;2022-08-25T05:25:41;9.73;;;2.60;;
3941;SDS011;1985;48.592;8.850;2022-08-25T05:28:08;12.52;;;2.88;;
3941;SDS011;1985;48.592;8.850;2022-08-25T05:30:38;11.90;;;2.80;;
3941;SDS011;1985;48.592;8.850;2022-08-25T05:33:04;10.57;;;2.83;;
3941;SDS011;1985;48.592;8.850;2022-08-25T05:35:30;11.45;;;2.90;;
3941;SDS011;1985;48.592;8.850;2022-08-25T05:37:56;11.10;;;2.60;;
3941;SDS011;1985;48.592;8.850;2022-08-25T05:40:22;9.80;;;2.20;;
3941;SDS011;1985;48.592;8.850;2022-08-25T05:42:48;11.02;;;2.90;;
3941;SDS011;1985;48.592;8.850;2022-08-25T05:45:14;12.68;;;2.85;;
3941;SDS011;1985;48.592;8.850;2022-08-25T05:47:40;12.30;;;2.83;;
3941;SDS011;1985;48.592;8.850;2022-08-25T05:50:06;12.53;;;2.97;;
3941;SDS011;1985;48.592;8.850;2022-08-25T05:52:33;11.63;;;3.20;;
3941;SDS011;1985;48.592;8.850;2022-08-25T05:54:59;12.40;;;3.10;;
3941;SDS011;1985;48.592;8.850;2022-08-25T05:57:24;11.43;;;3.13;;
3941;SDS011;1985;48.592;8.850;2022-08-25T05:59:50;10.05;;;2.90;;
3941;SDS011;1985;48.592;8.850;2022-08-25T06:02:15;11.32;;;3.13;;
3941;SDS011;1985;48.592;8.850;2022-08-25T06:05:00;12.45;;;3.22;;
3941;SDS011;1985;48.592;8.850;2022-08-25T06:07:25;11.10;;;2.75;;
3941;SDS011;1985;48.592;8.850;2022-08-25T06:09:51;11.23;;;2.90;;
3941;SDS011;1985;48.592;8.850;2022-08-25T06:12:17;10.30;;;2.60;;
3941;SDS011;1985;48.592;8.850;2022-08-25T06:14:45;13.55;;;2.70;;
3941;SDS011;1985;48.592;8.850;2022-08-25T06:17:12;10.40;;;3.00;;
3941;SDS011;1985;48.592;8.850;2022-08-25T06:19:37;10.45;;;2.60;;
3941;SDS011;1985;48.592;8.850;2022-08-25T06:22:03;11.45;;;3.38;;
3941;SDS011;1985;48.592;8.850;2022-08-25T06:24:29;9.93;;;2.63;;
3941;SDS011;1985;48.592;8.850;2022-08-25T06:26:55;11.60;;;2.70;;
3941;SDS011;1985;48.592;8.850;2022-08-25T06:29:21;10.65;;;3.00;;
3941;SDS011;1985;48.592;8.850;2022-08-25T06:31:48;11.32;;;2.92;;
3941;SDS011;1985;48.592;8.850;2022-08-25T06:34:14;10.02;;;2.50;;
3941;SDS011;1985;48.592;8.850;2022-08-25T06:36:40;11.18;;;2.50;;
3941;SDS011;1985;48.592;8.850;2022-08-25T06:39:07;11.67;;;3.23;;
3941;SDS011;1985;48.592;8.850;2022-08-25T06:41:33;10.27;;;2.47;;
3941;SDS011;1985;48.592;8.850;2022-08-25T06:43:58;10.20;;;2.60;;
3941;SDS011;1985;48.592;8.850;2022-08-25T06:46:25;11.80;;;3.30;;
3941;SDS011;1985;48.592;8.850;2022-08-25T06:48:52;11.02;;;2.47;;
3941;SDS011;1985;48.592;8.850;2022-08-25T06:51:19;9.30;;;2.33;;
3941;SDS011;1985;48.592;8.850;2022-08-25T06:53:46;10.73;;;3.15;;
3941;SDS011;1985;48.592;8.850;2022-08-25T06:56:14;9.90;;;2.50;;
3941;SDS011;1985;48.592;8.850;2022-08-25T06:58:41;10.68;;;3.00;;
3941;SDS011;1985;48.592;8.850;2022-08-25T07:01:11;10.30;;;3.10;;
3941;SDS011;1985;48.592;8.850;2022-08-25T07:03:37;10.30;;;2.60;;
3941;SDS011;1985;48.592;8.850;2022-08-25T07:06:02;10.50;;;3.10;;
3941;SDS011;1985;48.592;8.850;2022-08-25T07:08:29;10.00;;;2.63;;
3941;SDS011;1985;48.592;8.850;2022-08-25T07:10:56;10.40;;;2.70;;
3941;SDS011;1985;48.592;8.850;2022-08-25T07:13:22;10.23;;;2.30;;
3941;SDS011;1985;48.592;8.850;2022-08-25T07:15:48;11.60;;;2.90;;
3941;SDS011;1985;48.592;8.850;2022-08-25T07:18:18;10.75;;;3.40;;
3941;SDS011;1985;48.592;8.850;2022-08-25T07:20:44;10.85;;;3.05;;
3941;SDS011;1985;48.592;8.850;2022-08-25T07:23:10;10.95;;;2.80;;
3941;SDS011;1985;48.592;8.850;2022-08-25T07:25:36;10.53;;;3.30;;
3941;SDS011;1985;48.592;8.850;2022-08-25T07:28:02;12.65;;;3.00;;
3941;SDS011;1985;48.592;8.850;2022-08-25T07:30:28;13.52;;;3.50;;
3941;SDS011;1985;48.592;8.850;2022-08-25T07:32:54;11.02;;;2.60;;
3941;SDS011;1985;48.592;8.850;2022-08-25T07:35:19;12.80;;;3.80;;
3941;SDS011;1985;48.592;8.850;2022-08-25T07:37:51;10.70;;;3.10;;
3941;SDS011;1985;48.592;8.850;2022-08-25T07:40:22;10.85;;;3.00;;
3941;SDS011;1985;48.592;8.850;2022-08-25T07:42:53;15.98;;;3.50;;
3941;SDS011;1985;48.592;8.850;2022-08-25T07:45:21;11.93;;;3.38;;
3941;SDS011;1985;48.592;8.850;2022-08-25T07:47:54;10.50;;;3.08;;
3941;SDS011;1985;48.592;8.850;2022-08-25T07:50:22;12.30;;;3.30;;
3941;SDS011;1985;48.592;8.850;2022-08-25T07:52:48;11.80;;;3.50;;
3941;SDS011;1985;48.592;8.850;2022-08-25T07:55:14;11.77;;;3.40;;
3941;SDS011;1985;48.592;8.850;2022-08-25T07:57:40;9.77;;;2.80;;
3941;SDS011;1985;48.592;8.850;2022-08-25T08:00:06;11.57;;;2.83;;
3941;SDS011;1985;48.592;8.850;2022-08-25T08:02:36;13.60;;;2.90;;
3941;SDS011;1985;48.592;8.850;2022-08-25T08:05:02;10.10;;;3.00;;
3941;SDS011;1985;48.592;8.850;2022-08-25T08:07:28;10.88;;;3.10;;
3941;SDS011;1985;48.592;8.850;2022-08-25T08:09:55;11.30;;;3.45;;
3941;SDS011;1985;48.592;8.850;2022-08-25T08:12:22;11.80;;;3.30;;
3941;SDS011;1985;48.592;8.850;2022-08-25T08:14:48;11.07;;;3.50;;
3941;SDS011;1985;48.592;8.850;2022-08-25T08:17:14;10.45;;;2.72;;
3941;SDS011;1985;48.592;8.850;2022-08-25T08:19:40;14.97;;;3.33;;
3941;SDS011;1985;48.592;8.850;2022-08-25T08:22:06;10.88;;;3.03;;
3941;SDS011;1985;48.592;8.850;2022-08-25T08:24:35;10.40;;;2.72;;
3941;SDS011;1985;48.592;8.850;2022-08-25T08:27:06;12.18;;;3.08;;
3941;SDS011;1985;48.592;8.850;2022-08-25T08:29:34;11.25;;;3.65;;
3941;SDS011;1985;48.592;8.850;2022-08-25T08:32:01;11.18;;;3.60;;
3941;SDS011;1985;48.592;8.850;2022-08-25T08:34:28;13.93;;;3.10;;
3941;SDS011;1985;48.592;8.850;2022-08-25T08:36:54;14.77;;;3.25;;
3941;SDS011;1985;48.592;8.850;2022-08-25T08:39:20;10.02;;;2.92;;
3941;SDS011;1985;48.592;8.850;2022-08-25T08:53:04;10.55;;;3.20;;
3941;SDS011;1985;48.592;8.850;2022-08-25T08:55:38;11.15;;;2.60;;
3941;SDS011;1985;48.592;8.850;2022-08-25T08:58:10;9.70;;;2.60;;
3941;SDS011;1985;48.592;8.850;2022-08-25T09:00:49;10.10;;;2.65;;
3941;SDS011;1985;48.592;8.850;2022-08-25T09:05:53;11.20;;;3.50;;
3941;SDS011;1985;48.592;8.850;2022-08-25T09:08:23;10.57;;;3.03;;
3941;SDS011;1985;48.592;8.850;2022-08-25T09:10:55;11.43;;;2.70;;
3941;SDS011;1985;48.592;8.850;2022-08-25T09:17:03;9.60;;;2.72;;
3941;SDS011;1985;48.592;8.850;2022-08-25T09:25:22;10.75;;;2.88;;
3941;SDS011;1985;48.592;8.850;2022-08-25T09:30:36;12.32;;;3.20;;
3941;SDS011;1985;48.592;8.850;2022-08-25T09:33:14;12.18;;;3.10;;
3941;SDS011;1985;48.592;8.850;2022-08-25T09:35:43;10.10;;;2.70;;
3941;SDS011;1985;48.592;8.850;2022-08-25T09:38:11;9.82;;;2.63;;
3941;SDS011;1985;48.592;8.850;2022-08-25T09:40:39;10.15;;;3.10;;
3941;SDS011;1985;48.592;8.850;2022-08-25T09:43:50;11.37;;;2.90;;
3941;SDS011;1985;48.592;8.850;2022-08-25T09:46:18;10.27;;;2.85;;
3941;SDS011;1985;48.592;8.850;2022-08-25T09:48:56;12.43;;;2.53;;
3941;SDS011;1985;48.592;8.850;2022-08-25T09:51:35;12.10;;;2.40;;
3941;SDS011;1985;48.592;8.850;2022-08-25T09:56:49;10.73;;;2.57;;
3941;SDS011;1985;48.592;8.850;2022-08-25T10:04:29;9.18;;;2.40;;
3941;SDS011;1985;48.592;8.850;2022-08-25T10:07:01;10.27;;;2.78;;
3941;SDS011;1985;48.592;8.850;2022-08-25T10:09:37;9.52;;;2.47;;
3941;SDS011;1985;48.592;8.850;2022-08-25T10:12:23;11.33;;;2.77;;
3941;SDS011;1985;48.592;8.850;2022-08-25T10:14:55;9.90;;;2.53;;
3941;SDS011;1985;48.592;8.850;2022-08-25T10:17:28;11.82;;;3.22;;
3941;SDS011;1985;48.592;8.850;2022-08-25T10:22:40;9.30;;;2.80;;
3941;SDS011;1985;48.592;8.850;2022-08-25T10:25:08;10.00;;;2.80;;
3941;SDS011;1985;48.592;8.850;2022-08-25T10:38:34;10.93;;;2.63;;
3941;SDS011;1985;48.592;8.850;2022-08-25T10:47:29;8.88;;;2.10;;
3941;SDS011;1985;48.592;8.850;2022-08-25T10:49:47;10.10;;;2.60;;
3941;SDS011;1985;48.592;8.850;2022-08-25T10:55:19;9.20;;;2.00;;
3941;SDS011;1985;48.592;8.850;2022-08-25T11:00:39;9.63;;;2.20;;
3941;SDS011;1985;48.592;8.850;2022-08-25T11:03:39;9.60;;;2.30;;
3941;SDS011;1985;48.592;8.850;2022-08-25T11:06:16;9.60;;;2.70;;
3941;SDS011;1985;48.592;8.850;2022-08-25T11:09:04;10.23;;;2.10;;
3941;SDS011;1985;48.592;8.850;2022-08-25T11:11:35;13.18;;;2.40;;
3941;SDS011;1985;48.592;8.850;2022-08-25T11:14:23;9.50;;;2.10;;
3941;SDS011;1985;48.592;8.850;2022-08-25T11:16:51;8.70;;;2.13;;
3941;SDS011;1985;48.592;8.850;2022-08-25T11:19:31;9.80;;;2.10;;
3941;SDS011;1985;48.592;8.850;2022-08-25T11:22:03;8.63;;;2.30;;
3941;SDS011;1985;48.592;8.850;2022-08-25T11:24:43;8.43;;;2.00;;
3941;SDS011;1985;48.592;8.850;2022-08-25T11:28:11;9.67;;;2.47;;
3941;SDS011;1985;48.592;8.850;2022-08-25T11:30:24;8.57;;;2.20;;
3941;SDS011;1985;48.592;8.850;2022-08-25T11:32:51;10.60;;;2.42;;
3941;SDS011;1985;48.592;8.850;2022-08-25T11:35:28;8.90;;;2.45;;
3941;SDS011;1985;48.592;8.850;2022-08-25T11:51:44;9.35;;;2.65;;
3941;SDS011;1985;48.592;8.850;2022-08-25T11:54:33;9.17;;;2.00;;
3941;SDS011;1985;48.592;8.850;2022-08-25T11:57:06;8.70;;;2.35;;
3941;SDS011;1985;48.592;8.850;2022-08-25T12:03:07;8.50;;;1.92;;
3941;SDS011;1985;48.592;8.850;2022-08-25T12:19:22;8.35;;;1.90;;
3941;SDS011;1985;48.592;8.850;2022-08-25T12:21:50;8.30;;;1.80;;
3941;SDS011;1985;48.592;8.850;2022-08-25T12:24:21;8.65;;;1.95;;
3941;SDS011;1985;48.592;8.850;2022-08-25T12:35:22;8.15;;;1.85;;
3941;SDS011;1985;48.592;8.850;2022-08-25T12:37:58;8.40;;;1.80;;
3941;SDS011;1985;48.592;8.850;2022-08-25T12:40:32;8.60;;;1.90;;
3941;SDS011;1985;48.592;8.850;2022-08-25T12:43:09;7.50;;;1.57;;
3941;SDS011;1985;48.592;8.850;2022-08-25T12:45:37;8.40;;;2.10;;
3941;SDS011;1985;48.592;8.850;2022-08-25T12:50:55;8.00;;;2.13;;
3941;SDS011;1985;48.592;8.850;2022-08-25T12:56:17;8.10;;;1.90;;
3941;SDS011;1985;48.592;8.850;2022-08-25T12:59:30;8.90;;;2.00;;
3941;SDS011;1985;48.592;8.850;2022-08-25T13:20:48;8.00;;;1.90;;
3941;SDS011;1985;48.592;8.850;2022-08-25T13:23:20;9.18;;;2.50;;
3941;SDS011;1985;48.592;8.850;2022-08-25T13:25:50;8.98;;;2.38;;
3941;SDS011;1985;48.592;8.850;2022-08-25T13:28:23;8.43;;;1.85;;
3941;SDS011;1985;48.592;8.850;2022-08-25T13:30:56;8.18;;;1.80;;
3941;SDS011;1985;48.592;8.850;2022-08-25T13:33:27;9.35;;;1.70;;
3941;SDS011;1985;48.592;8.850;2022-08-25T13:35:54;8.30;;;1.70;;
3941;SDS011;1985;48.592;8.850;2022-08-25T13:38:40;9.88;;;2.28;;
3941;SDS011;1985;48.592;8.850;2022-08-25T13:41:08;9.73;;;2.00;;
3941;SDS011;1985;48.592;8.850;2022-08-25T13:43:34;9.00;;;1.98;;
3941;SDS011;1985;48.592;8.850;2022-08-25T13:46:01;8.15;;;1.65;;
3941;SDS011;1985;48.592;8.850;2022-08-25T13:48:35;7.80;;;1.58;;
3941;SDS011;1985;48.592;8.850;2022-08-25T13:51:22;7.93;;;1.70;;
3941;SDS011;1985;48.592;8.850;2022-08-25T13:53:54;8.10;;;1.90;;
3941;SDS011;1985;48.592;8.850;2022-08-25T13:56:32;8.30;;;2.00;;
3941;SDS011;1985;48.592;8.850;2022-08-25T13:59:04;8.45;;;1.83;;
3941;SDS011;1985;48.592;8.850;2022-08-25T14:01:43;10.60;;;1.77;;
3941;SDS011;1985;48.592;8.850;2022-08-25T14:04:27;8.52;;;1.70;;
3941;SDS011;1985;48.592;8.850;2022-08-25T14:09:46;7.53;;;1.60;;
3941;SDS011;1985;48.592;8.850;2022-08-25T14:17:45;9.50;;;1.80;;
3941;SDS011;1985;48.592;8.850;2022-08-25T14:20:26;7.95;;;1.55;;
3941;SDS011;1985;48.592;8.850;2022-08-25T14:22:55;7.90;;;1.60;;
3941;SDS011;1985;48.592;8.850;2022-08-25T14:25:31;11.73;;;1.93;;
3941;SDS011;1985;48.592;8.850;2022-08-25T14:27:58;8.55;;;1.73;;
3941;SDS011;1985;48.592;8.850;2022-08-25T14:30:27;8.15;;;1.98;;
3941;SDS011;1985;48.592;8.850;2022-08-25T14:32:54;8.32;;;2.00;;
3941;SDS011;1985;48.592;8.850;2022-08-25T14:35:20;7.60;;;1.70;;
3941;SDS011;1985;48.592;8.850;2022-08-25T14:37:46;8.23;;;1.90;;
3941;SDS011;1985;48.592;8.850;2022-08-25T14:40:13;8.30;;;1.90;;
3941;SDS011;1985;48.592;8.850;2022-08-25T14:42:43;7.68;;;1.58;;
3941;SDS011;1985;48.592;8.850;2022-08-25T14:45:10;9.82;;;1.70;;
3941;SDS011;1985;48.592;8.850;2022-08-25T14:47:36;7.93;;;1.77;;
3941;SDS011;1985;48.592;8.850;2022-08-25T14:50:02;8.20;;;1.70;;
3941;SDS011;1985;48.592;8.850;2022-08-25T14:52:28;8.70;;;2.00;;
3941;SDS011;1985;48.592;8.850;2022-08-25T14:54:54;7.72;;;1.77;;
3941;SDS011;1985;48.592;8.850;2022-08-25T14:57:23;8.10;;;1.70;;
3941;SDS011;1985;48.592;8.850;2022-08-25T14:59:49;7.47;;;1.50;;
3941;SDS011;1985;48.592;8.850;2022-08-25T15:02:16;7.78;;;1.67;;
3941;SDS011;1985;48.592;8.850;2022-08-25T15:04:48;8.20;;;1.90;;
3941;SDS011;1985;48.592;8.850;2022-08-25T15:07:19;12.20;;;2.00;;
3941;SDS011;1985;48.592;8.850;2022-08-25T15:10:04;9.10;;;1.63;;
3941;SDS011;1985;48.592;8.850;2022-08-25T15:12:31;9.00;;;1.80;;
3941;SDS011;1985;48.592;8.850;2022-08-25T15:14:58;8.00;;;1.60;;
3941;SDS011;1985;48.592;8.850;2022-08-25T15:17:23;8.50;;;1.50;;
3941;SDS011;1985;48.592;8.850;2022-08-25T15:19:49;9.10;;;1.50;;
3941;SDS011;1985;48.592;8.850;2022-08-25T15:22:14;8.00;;;1.77;;
3941;SDS011;1985;48.592;8.850;2022-08-25T15:24:40;7.80;;;1.50;;
3941;SDS011;1985;48.592;8.850;2022-08-25T15:27:06;9.30;;;2.00;;
3941;SDS011;1985;48.592;8.850;2022-08-25T15:29:33;7.70;;;1.40;;
3941;SDS011;1985;48.592;8.850;2022-08-25T15:32:00;8.60;;;2.00;;
3941;SDS011;1985;48.592;8.850;2022-08-25T15:34:28;7.90;;;1.90;;
3941;SDS011;1985;48.592;8.850;2022-08-25T15:36:57;8.02;;;1.65;;
3941;SDS011;1985;48.592;8.850;2022-08-25T15:39:30;7.80;;;1.60;;
3941;SDS011;1985;48.592;8.850;2022-08-25T15:41:55;8.65;;;1.83;;
3941;SDS011;1985;48.592;8.850;2022-08-25T15:44:21;7.60;;;1.63;;
3941;SDS011;1985;48.592;8.850;2022-08-25T15:46:47;9.00;;;1.75;;
3941;SDS011;1985;48.592;8.850;2022-08-25T15:49:13;7.80;;;1.70;;
3941;SDS011;1985;48.592;8.850;2022-08-25T15:51:39;9.73;;;1.90;;
3941;SDS011;1985;48.592;8.850;2022-08-25T15:54:05;11.35;;;1.70;;
3941;SDS011;1985;48.592;8.850;2022-08-25T15:56:31;7.90;;;1.80;;
3941;SDS011;1985;48.592;8.850;2022-08-25T15:58:57;8.45;;;1.65;;
3941;SDS011;1985;48.592;8.850;2022-08-25T16:01:23;9.00;;;2.20;;
3941;SDS011;1985;48.592;8.850;2022-08-25T16:03:51;8.75;;;1.80;;
3941;SDS011;1985;48.592;8.850;2022-08-25T16:06:18;8.40;;;1.80;;
3941;SDS011;1985;48.592;8.850;2022-08-25T16:08:45;8.47;;;1.70;;
3941;SDS011;1985;48.592;8.850;2022-08-25T16:11:21;8.65;;;1.80;;
3941;SDS011;1985;48.592;8.850;2022-08-25T16:13:49;9.23;;;1.85;;
3941;SDS011;1985;48.592;8.850;2022-08-25T16:16:15;8.55;;;1.80;;
3941;SDS011;1985;48.592;8.850;2022-08-25T16:18:42;8.80;;;2.00;;
3941;SDS011;1985;48.592;8.850;2022-08-25T16:21:09;8.15;;;1.70;;
3941;SDS011;1985;48.592;8.850;2022-08-25T16:23:38;8.02;;;1.52;;
3941;SDS011;1985;48.592;8.850;2022-08-25T16:26:05;8.95;;;2.08;;
3941;SDS011;1985;48.592;8.850;2022-08-25T16:28:33;8.20;;;1.60;;
3941;SDS011;1985;48.592;8.850;2022-08-25T16:31:00;7.93;;;1.80;;
3941;SDS011;1985;48.592;8.850;2022-08-25T16:33:25;8.02;;;1.45;;
3941;SDS011;1985;48.592;8.850;2022-08-25T16:35:51;8.70;;;1.90;;
3941;SDS011;1985;48.592;8.850;2022-08-25T16:38:17;9.18;;;1.83;;
3941;SDS011;1985;48.592;8.850;2022-08-25T16:40:44;8.30;;;1.40;;
3941;SDS011;1985;48.592;8.850;2022-08-25T16:43:10;10.23;;;1.60;;
3941;SDS011;1985;48.592;8.850;2022-08-25T16:45:36;9.30;;;1.77;;
3941;SDS011;1985;48.592;8.850;2022-08-25T16:48:02;8.00;;;1.60;;
3941;SDS011;1985;48.592;8.850;2022-08-25T16:50:29;8.30;;;1.90;;
3941;SDS011;1985;48.592;8.850;2022-08-25T16:52:58;7.70;;;1.40;;
3941;SDS011;1985;48.592;8.850;2022-08-25T16:55:42;7.53;;;1.30;;
3941;SDS011;1985;48.592;8.850;2022-08-25T16:58:08;8.38;;;1.70;;
3941;SDS011;1985;48.592;8.850;2022-08-25T17:00:35;8.23;;;1.58;;
3941;SDS011;1985;48.592;8.850;2022-08-25T17:03:02;8.60;;;1.45;;
3941;SDS011;1985;48.592;8.850;2022-08-25T17:05:32;8.55;;;1.67;;
3941;SDS011;1985;48.592;8.850;2022-08-25T17:08:05;8.65;;;1.80;;
3941;SDS011;1985;48.592;8.850;2022-08-25T17:10:49;8.15;;;1.80;;
3941;SDS011;1985;48.592;8.850;2022-08-25T17:13:15;8.10;;;1.80;;
3941;SDS011;1985;48.592;8.850;2022-08-25T17:15:41;8.38;;;1.90;;
3941;SDS011;1985;48.592;8.850;2022-08-25T17:18:09;8.10;;;1.40;;
3941;SDS011;1985;48.592;8.850;2022-08-25T17:20:35;8.15;;;1.63;;
3941;SDS011;1985;48.592;8.850;2022-08-25T17:23:02;7.60;;;1.55;;
3941;SDS011;1985;48.592;8.850;2022-08-25T17:25:32;8.50;;;1.40;;
3941;SDS011;1985;48.592;8.850;2022-08-25T17:27:59;8.00;;;1.50;;
3941;SDS011;1985;48.592;8.850;2022-08-25T17:30:24;8.35;;;1.70;;
3941;SDS011;1985;48.592;8.850;2022-08-25T17:32:50;8.30;;;1.70;;
3941;SDS011;1985;48.592;8.850;2022-08-25T17:35:16;8.50;;;2.10;;